WA4ISB-1 Weather Reports


Display with metric or nautical units.
time (UTC)temp
F
wind
direction
speed
MPH
gust
MPH
rain 1hr
in
rain 24hr
in
rain mn
in
humidity
%
barometer
mb
20210225191954 81 123 0.0 0.0 0.00 0.00 0.00 41 1020.4
20210225191908 81 123 0.0 0.0 0.00 0.00 0.00 41 1020.4
20210225191835 81 123 0.0 0.0 0.00 0.00 0.00 41 1020.4
20210225191414 81 123 0.0 0.0 0.00 0.00 0.00 41 1020.4
20210225190910 81 123 0.0 0.0 0.00 0.00 0.00 40 1020.6
20210225190406 81 123 0.0 0.0 0.00 0.00 0.00 40 1020.6
20210225185908 81 123 0.0 0.0 0.00 0.00 0.00 41 1020.7
20210225185449 81 123 0.0 0.0 0.00 0.00 0.00 38 1020.8
20210225185410 81 123 0.0 0.0 0.00 0.00 0.00 40 1020.9
20210225184908 81 123 0.0 0.0 0.00 0.00 0.00 38 1020.8
20210225184409 82 123 0.0 0.0 0.00 0.00 0.00 39 1021.0
20210225183905 82 123 0.0 0.0 0.00 0.00 0.00 43 1021.0
20210225183409 81 123 0.0 0.0 0.00 0.00 0.00 42 1021.1
20210225183029 81 123 0.0 0.0 0.00 0.00 0.00 43 1021.2
20210225182710 81 123 0.0 0.0 0.00 0.00 0.00 43 1021.3
20210225181920 81 123 0.0 0.0 0.00 0.00 0.00 43 1021.4
20210225181405 81 123 0.0 0.0 0.00 0.00 0.00 42 1021.5
20210225180903 81 123 0.0 0.0 0.00 0.00 0.00 43 1021.5
20210225180405 81 123 0.0 0.0 0.00 0.00 0.00 43 1021.7
20210225175904 81 123 0.0 0.0 0.00 0.00 0.00 42 1021.7
20210225175404 81 123 0.0 0.0 0.00 0.00 0.00 42 1021.8
20210225174935 81 123 0.0 0.0 0.00 0.00 0.00 41 1021.9
20210225174402 82 123 0.0 0.0 0.00 0.00 0.00 44 1022.0
20210225173902 81 123 0.0 0.0 0.00 0.00 0.00 44 1022.0
20210225173402 80 123 0.0 0.0 0.00 0.00 0.00 45 1022.1
20210225172912 80 123 0.0 0.0 0.00 0.00 0.00 44 1022.2
20210225172416 80 123 0.0 0.0 0.00 0.00 0.00 45 1022.5
20210225172411 80 123 0.0 0.0 0.00 0.00 0.00 44 1022.4
20210225171902 80 123 0.0 0.0 0.00 0.00 0.00 45 1022.5
20210225171814 79 123 0.0 0.0 0.00 0.00 0.00 48 1022.8
20210225171407 80 123 0.0 0.0 0.00 0.00 0.00 45 1022.6
20210225170900 80 123 0.0 0.0 0.00 0.00 0.00 45 1022.6
20210225170400 79 123 0.0 0.0 0.00 0.00 0.00 47 1022.7
20210225165902 79 123 0.0 0.0 0.00 0.00 0.00 48 1022.7
20210225165401 79 123 0.0 0.0 0.00 0.00 0.00 48 1022.8
20210225165331 78 123 0.0 0.0 0.00 0.00 0.00 47 1022.8
20210225164923 78 123 0.0 0.0 0.00 0.00 0.00 47 1022.8
20210225164744 78 123 0.0 0.0 0.00 0.00 0.00 49 1023.0
20210225164404 78 123 0.0 0.0 0.00 0.00 0.00 48 1022.9
20210225163858 78 123 0.0 0.0 0.00 0.00 0.00 49 1023.0
20210225163400 77 123 0.0 5.0 0.00 0.00 0.00 50 1023.1
20210225162921 77 358 0.0 2.0 0.00 0.00 0.00 50 1023.2
20210225162432 77 358 0.0 0.0 0.00 0.00 0.00 52 1023.3
20210225161900 76 358 0.0 0.0 0.00 0.00 0.00 52 1023.4
20210225161357 75 358 0.0 0.0 0.00 0.00 0.00 53 1023.5
20210225160858 75 358 0.0 0.0 0.00 0.00 0.00 52 1023.5
20210225160357 75 358 0.0 0.0 0.00 0.00 0.00 53 1023.5
20210225155857 75 358 0.0 0.0 0.00 0.00 0.00 52 1023.6
20210225155356 75 358 0.0 0.0 0.00 0.00 0.00 55 1023.6
20210225154855 75 358 0.0 0.0 0.00 0.00 0.00 53 1023.6
20210225154356 74 358 0.0 0.0 0.00 0.00 0.00 55 1023.6
20210225154247 73 358 0.0 0.0 0.00 0.00 0.00 56 1023.7
20210225153856 74 358 0.0 0.0 0.00 0.00 0.00 56 1023.6
20210225153354 73 358 0.0 0.0 0.00 0.00 0.00 56 1023.7
20210225152927 73 358 0.0 0.0 0.00 0.00 0.00 55 1023.7
20210225152444 73 358 0.0 0.0 0.00 0.00 0.00 56 1023.6
20210225151854 73 358 0.0 0.0 0.00 0.00 0.00 56 1023.7
20210225151354 73 358 0.0 0.0 0.00 0.00 0.00 57 1023.8
20210225150853 72 358 0.0 0.0 0.00 0.00 0.00 56 1023.7
20210225150356 72 358 0.0 0.0 0.00 0.00 0.00 59 1023.7
20210225150232 71 358 0.0 0.0 0.00 0.00 0.00 60 1023.6
20210225145854 72 358 0.0 0.0 0.00 0.00 0.00 59 1023.6
20210225145354 71 358 0.0 0.0 0.00 0.00 0.00 58 1023.5
20210225144852 71 358 0.0 0.0 0.00 0.00 0.00 60 1023.6
20210225144351 71 358 0.0 2.0 0.00 0.00 0.00 60 1023.5
20210225144045 71 358 0.0 0.0 0.00 0.00 0.00 60 1023.4
20210225143852 71 358 0.0 0.0 0.00 0.00 0.00 60 1023.4
20210225143828 69 358 0.0 0.0 0.00 0.00 0.00 62 1023.3
20210225143356 70 358 0.0 0.0 0.00 0.00 0.00 61 1023.4
20210225142942 70 358 0.0 0.0 0.00 0.00 0.00 61 1023.4
20210225142436 69 358 0.0 0.0 0.00 0.00 0.00 62 1023.3
20210225142304 67 358 0.0 0.0 0.00 0.00 0.00 68 1023.2
20210225141850 69 358 0.0 0.0 0.00 0.00 0.00 66 1023.3
20210225141350 68 358 0.0 0.0 0.00 0.00 0.00 65 1023.3
20210225140349 67 358 0.0 0.0 0.00 0.00 0.00 68 1023.2
20210225135351 66 358 0.0 0.0 0.00 0.00 0.00 68 1023.0
20210225134037 64 358 0.0 0.0 0.00 0.00 0.00 73 1023.1
20210225133856 64 358 0.0 0.0 0.00 0.00 0.00 73 1023.1
20210225133821 60 358 0.0 0.0 0.00 0.00 0.00 79 1023.0
20210225133349 63 358 0.0 0.0 0.00 0.00 0.00 74 1023.0
20210225133024 62 358 0.0 0.0 0.00 0.00 0.00 79 1023.0
20210225132413 60 358 0.0 0.0 0.00 0.00 0.00 79 1023.0
20210225132034 59 358 0.0 0.0 0.00 0.00 0.00 83 1023.0
20210225131853 59 358 0.0 0.0 0.00 0.00 0.00 83 1023.0
20210225131347 58 358 0.0 0.0 0.00 0.00 0.00 87 1023.0
20210225130851 57 358 0.0 0.0 0.00 0.00 0.00 90 1022.9
20210225125849 57 358 0.0 0.0 0.00 0.00 0.00 93 1022.8
20210225125347 57 358 0.0 0.0 0.00 0.00 0.00 95 1022.7
20210225124846 56 358 0.0 0.0 0.00 0.00 0.00 95 1022.6
20210225124349 55 358 0.0 0.0 0.00 0.00 0.00 95 1022.5
20210225123846 54 358 0.0 0.0 0.00 0.00 0.00 95 1022.5
20210225123346 54 358 0.0 0.0 0.00 0.00 0.00 95 1022.4
20210225122355 54 358 0.0 0.0 0.00 0.00 0.00 95 1022.3
20210225121844 54 358 0.0 0.0 0.00 0.00 0.00 95 1022.3
20210225121343 54 358 0.0 0.0 0.00 0.00 0.00 95 1022.2
20210225120843 54 358 0.0 0.0 0.00 0.00 0.00 95 1022.1
20210225120345 54 358 0.0 0.0 0.00 0.00 0.00 95 1022.1
20210225115842 54 358 0.0 0.0 0.00 0.00 0.00 95 1022.0
20210225115341 54 358 0.0 0.0 0.00 0.00 0.00 94 1022.0
20210225114847 54 358 0.0 0.0 0.00 0.00 0.00 94 1021.9
20210225114346 54 358 0.0 0.0 0.00 0.00 0.00 94 1021.9
20210225113844 54 358 0.0 0.0 0.00 0.00 0.00 94 1021.9
20210225113348 54 358 0.0 0.0 0.00 0.00 0.00 94 1021.9
20210225113009 54 358 0.0 0.0 0.00 0.00 0.00 94 1021.8
20210225112440 54 358 0.0 0.0 0.00 0.00 0.00 94 1021.8
20210225111840 54 358 0.0 0.0 0.00 0.00 0.00 94 1021.7
20210225111413 54 358 0.0 0.0 0.00 0.00 0.00 94 1021.7
20210225111341 54 358 0.0 0.0 0.00 0.00 0.00 94 1021.7
20210225110839 54 358 0.0 0.0 0.00 0.00 0.00 94 1021.6
20210225110341 54 358 0.0 0.0 0.00 0.00 0.00 94 1021.5
20210225105853 54 358 0.0 0.0 0.00 0.00 0.00 94 1021.4
20210225104839 54 358 0.0 0.0 0.00 0.00 0.00 94 1021.3
20210225104340 54 358 0.0 0.0 0.00 0.00 0.00 94 1021.3
20210225103849 54 358 0.0 0.0 0.00 0.00 0.00 94 1021.2
20210225103058 54 358 0.0 0.0 0.00 0.00 0.00 94 1021.2
20210225103043 54 358 0.0 0.0 0.00 0.00 0.00 94 1021.2
20210225102950 54 358 0.0 0.0 0.00 0.00 0.00 94 1021.0
20210225102451 54 358 0.0 0.0 0.00 0.00 0.00 94 1021.0
20210225101840 54 358 0.0 0.0 0.00 0.00 0.00 94 1021.0
20210225101307 54 358 0.0 0.0 0.00 0.00 0.00 94 1021.0
20210225100843 54 358 0.0 0.0 0.00 0.00 0.00 94 1021.0
20210225100336 54 358 0.0 0.0 0.00 0.00 0.00 94 1020.9
20210225095836 54 358 0.0 0.0 0.00 0.00 0.00 94 1020.8
20210225095428 54 358 0.0 0.0 0.00 0.00 0.00 94 1020.8
20210225094902 53 358 0.0 0.0 0.00 0.00 0.00 94 1020.7
20210225094345 53 358 0.0 0.0 0.00 0.00 0.00 94 1020.6
20210225092335 53 358 0.0 0.0 0.00 0.00 0.00 94 1020.6
20210225091837 53 358 0.0 0.0 0.00 0.00 0.00 94 1020.6
20210225090833 53 358 0.0 0.0 0.00 0.00 0.00 94 1020.6
20210225085838 52 358 0.0 0.0 0.00 0.00 0.00 94 1020.6
20210225085339 52 358 0.0 0.0 0.00 0.00 0.00 93 1020.7
20210225084836 53 358 0.0 0.0 0.00 0.00 0.00 93 1020.8
20210225084336 52 358 0.0 0.0 0.00 0.00 0.00 93 1020.8
20210225083839 52 358 0.0 0.0 0.00 0.00 0.00 93 1020.8
20210225083357 52 358 0.0 0.0 0.00 0.00 0.00 93 1020.8
20210225083337 52 358 0.0 0.0 0.00 0.00 0.00 93 1020.9
20210225083021 52 358 0.0 0.0 0.00 0.00 0.00 93 1020.8
20210225081841 52 358 0.0 0.0 0.00 0.00 0.00 93 1020.9
20210225081407 52 358 0.0 0.0 0.00 0.00 0.00 93 1020.9
20210225081049 53 358 0.0 0.0 0.00 0.00 0.00 93 1020.9
20210225080840 52 358 0.0 0.0 0.00 0.00 0.00 93 1021.0
20210225080335 53 358 0.0 0.0 0.00 0.00 0.00 93 1020.9
20210225075846 52 358 0.0 0.0 0.00 0.00 0.00 93 1020.9
20210225075336 52 358 0.0 0.0 0.00 0.00 0.00 93 1020.9
20210225074836 52 358 0.0 0.0 0.00 0.00 0.00 93 1020.9
20210225074333 52 358 0.0 0.0 0.00 0.00 0.00 93 1020.9
20210225073829 52 358 0.0 0.0 0.00 0.00 0.00 93 1020.9
20210225073339 53 358 0.0 0.0 0.00 0.00 0.00 93 1020.9
20210225072935 52 358 0.0 0.0 0.00 0.00 0.00 93 1021.0
20210225071838 52 358 0.0 0.0 0.00 0.00 0.00 92 1021.0
20210225071338 52 358 0.0 0.0 0.00 0.00 0.00 92 1021.0
20210225070825 52 358 0.0 0.0 0.00 0.00 0.00 92 1020.9
20210225070532 53 358 0.0 0.0 0.00 0.00 0.00 92 1021.1
20210225070350 53 358 0.0 0.0 0.00 0.00 0.00 92 1021.0
20210225070325 53 358 0.0 0.0 0.00 0.00 0.00 92 1021.0
20210225065824 53 358 0.0 0.0 0.00 0.00 0.00 92 1021.0
20210225065324 53 358 0.0 0.0 0.00 0.00 0.00 92 1021.1
20210225064823 53 358 0.0 0.0 0.00 0.00 0.00 92 1021.1
20210225064323 53 358 0.0 0.0 0.00 0.00 0.00 92 1021.1
20210225064113 53 358 0.0 0.0 0.00 0.00 0.00 91 1021.2
20210225063827 53 358 0.0 0.0 0.00 0.00 0.00 92 1021.1
20210225063743 53 358 0.0 0.0 0.00 0.00 0.00 91 1021.2
20210225063322 53 358 0.0 0.0 0.00 0.00 0.00 91 1021.2
20210225063237 53 358 0.0 0.0 0.00 0.00 0.00 91 1021.2
20210225063039 53 358 0.0 0.0 0.00 0.00 0.00 91 1021.2
20210225062345 53 358 0.0 0.0 0.00 0.00 0.00 91 1021.2
20210225062206 53 358 0.0 0.0 0.00 0.00 0.00 91 1021.2
20210225061823 53 358 0.0 0.0 0.00 0.00 0.00 91 1021.2
20210225061324 53 358 0.0 0.0 0.00 0.00 0.00 91 1021.2
20210225060827 53 358 0.0 0.0 0.00 0.00 0.00 91 1021.3
20210225060651 53 358 0.0 0.0 0.00 0.00 0.00 91 1021.2
20210225060323 53 358 0.0 0.0 0.00 0.00 0.00 91 1021.2
20210225055825 53 358 0.0 0.0 0.00 0.00 0.00 91 1021.3
20210225055527 54 358 0.0 0.0 0.00 0.00 0.00 90 1021.2
20210225055400 53 358 0.0 0.0 0.00 0.00 0.00 91 1021.3
20210225055020 54 358 0.0 0.0 0.00 0.00 0.00 91 1021.3
20210225054523 54 358 0.0 0.0 0.00 0.00 0.00 90 1021.2
20210225054320 54 358 0.0 0.0 0.00 0.00 0.00 91 1021.1
20210225053824 54 358 0.0 0.0 0.00 0.00 0.00 90 1021.2
20210225053324 54 358 0.0 0.0 0.00 0.00 0.00 90 1021.2
20210225053247 54 358 0.0 0.0 0.00 0.00 0.00 90 1021.2
20210225052903 54 358 0.0 0.0 0.00 0.00 0.00 90 1021.2
20210225052338 54 358 0.0 0.0 0.00 0.00 0.00 90 1021.1
20210225051821 55 358 0.0 0.0 0.00 0.00 0.00 90 1021.1
20210225051319 55 358 0.0 0.0 0.00 0.00 0.00 89 1021.2
20210225051219 55 358 0.0 0.0 0.00 0.00 0.00 89 1021.2
20210225050819 55 358 0.0 0.0 0.00 0.00 0.00 89 1021.2
20210225050738 55 358 0.0 0.0 0.00 0.00 0.00 89 1021.3
20210225050321 55 358 0.0 0.0 0.00 0.00 0.00 89 1021.3
20210225050316 55 358 0.0 0.0 0.00 0.00 0.00 89 1021.3
20210225050138 55 358 0.0 0.0 0.00 0.00 0.00 89 1021.3
20210225045845 55 358 0.0 0.0 0.00 0.00 0.00 89 1021.3
20210225045703 56 358 0.0 0.0 0.00 0.00 0.00 89 1021.3
20210225045321 56 358 0.0 0.0 0.00 0.00 0.00 89 1021.3
20210225045310 56 358 0.0 0.0 0.00 0.00 0.00 89 1021.3
20210225044825 56 358 0.0 0.0 0.00 0.00 0.00 88 1021.4
20210225044819 56 358 0.0 0.0 0.00 0.00 0.00 89 1021.3
20210225043824 56 358 0.0 0.0 0.00 0.00 0.00 88 1021.4
20210225043446 56 358 0.0 0.0 0.00 0.00 0.00 88 1021.4
20210225043320 56 358 0.0 0.0 0.00 0.00 0.00 88 1021.4
20210225042935 57 358 0.0 0.0 0.00 0.00 0.00 88 1021.5
20210225042322 57 358 0.0 0.0 0.00 0.00 0.00 87 1021.5
20210225041922 57 358 0.0 0.0 0.00 0.00 0.00 87 1021.4
20210225041721 57 358 0.0 0.0 0.00 0.00 0.00 87 1021.3
20210225041319 57 358 0.0 0.0 0.00 0.00 0.00 87 1021.3
20210225040815 57 358 0.0 0.0 0.00 0.00 0.00 87 1021.3
20210225040322 57 358 0.0 0.0 0.00 0.00 0.00 86 1021.4
20210225035822 57 358 0.0 0.0 0.00 0.00 0.00 86 1021.3
20210225035327 57 358 0.0 0.0 0.00 0.00 0.00 85 1021.4
20210225035314 57 358 0.0 0.0 0.00 0.00 0.00 85 1021.4
20210225035033 57 358 0.0 0.0 0.00 0.00 0.00 85 1021.4
20210225034818 57 358 0.0 0.0 0.00 0.00 0.00 85 1021.4
20210225034313 58 358 0.0 0.0 0.00 0.00 0.00 85 1021.4
20210225033812 58 358 0.0 0.0 0.00 0.00 0.00 85 1021.4
20210225033411 58 358 0.0 0.0 0.00 0.00 0.00 84 1021.3
20210225033105 58 358 0.0 0.0 0.00 0.00 0.00 84 1021.2
20210225032340 58 358 0.0 0.0 0.00 0.00 0.00 84 1021.2
20210225031818 59 358 0.0 0.0 0.00 0.00 0.00 83 1021.2
20210225031318 59 358 0.0 0.0 0.00 0.00 0.00 83 1021.2
20210225030812 59 358 0.0 0.0 0.00 0.00 0.00 82 1021.2
20210225030311 59 358 0.0 0.0 0.00 0.00 0.00 82 1021.1
20210225025813 59 358 0.0 0.0 0.00 0.00 0.00 82 1021.1
20210225025310 59 358 0.0 0.0 0.00 0.00 0.00 82 1021.1
20210225024810 59 358 0.0 0.0 0.00 0.00 0.00 81 1021.0
20210225024312 59 358 0.0 0.0 0.00 0.00 0.00 80 1020.9
20210225023813 59 358 0.0 0.0 0.00 0.00 0.00 80 1021.0
20210225023315 59 358 0.0 0.0 0.00 0.00 0.00 79 1021.0
20210225022934 59 358 0.0 0.0 0.00 0.00 0.00 78 1021.0
20210225022314 60 358 0.0 0.0 0.00 0.00 0.00 77 1020.9
20210225021808 60 358 0.0 0.0 0.00 0.00 0.00 77 1020.8
20210225020810 60 358 0.0 0.0 0.00 0.00 0.00 76 1020.7
20210225020314 60 358 0.0 0.0 0.00 0.00 0.00 75 1020.7
20210225020307 60 358 0.0 0.0 0.00 0.00 0.00 75 1020.7
20210225015813 60 358 0.0 0.0 0.00 0.00 0.00 75 1020.7
20210225015751 61 358 0.0 0.0 0.00 0.00 0.00 74 1020.6
20210225015306 61 358 0.0 0.0 0.00 0.00 0.00 74 1020.6
20210225015238 61 358 0.0 0.0 0.00 0.00 0.00 74 1020.6
20210225014808 61 358 0.0 0.0 0.00 0.00 0.00 74 1020.6
20210225014729 61 358 0.0 0.0 0.00 0.00 0.00 73 1020.5
20210225014313 61 358 0.0 0.0 0.00 0.00 0.00 73 1020.5
20210225013805 61 358 0.0 0.0 0.00 0.00 0.00 73 1020.5
20210225013317 61 358 0.0 0.0 0.00 0.00 0.00 72 1020.5
20210225013128 62 358 0.0 0.0 0.00 0.00 0.00 71 1020.4
20210225013114 62 358 0.0 0.0 0.00 0.00 0.00 72 1020.4
20210225013109 62 358 0.0 0.0 0.00 0.00 0.00 71 1020.4
20210225012308 62 358 0.0 0.0 0.00 0.00 0.00 71 1020.4
20210225011807 62 358 0.0 0.0 0.00 0.00 0.00 70 1020.3
20210225011309 62 358 0.0 0.0 0.00 0.00 0.00 68 1020.3
20210225010808 63 358 0.0 0.0 0.00 0.00 0.00 67 1020.3
20210225010332 63 358 0.0 0.0 0.00 0.00 0.00 64 1020.1
20210225010305 63 358 0.0 0.0 0.00 0.00 0.00 66 1020.3
20210225005905 63 358 0.0 0.0 0.00 0.00 0.00 65 1020.2
20210225005807 63 358 0.0 0.0 0.00 0.00 0.00 65 1020.2
20210225005310 63 358 0.0 0.0 0.00 0.00 0.00 64 1020.1
20210225004806 64 358 0.0 0.0 0.00 0.00 0.00 63 1020.0
20210225004303 64 358 0.0 0.0 0.00 0.00 0.00 62 1020.0
20210225003308 65 358 0.0 0.0 0.00 0.00 0.00 60 1020.1
20210225003101 65 358 0.0 0.0 0.00 0.00 0.00 58 1020.0
20210225002305 66 358 0.0 0.0 0.00 0.00 0.00 57 1019.9
20210225001922 66 358 0.0 0.0 0.00 0.00 0.00 57 1020.0
20210225001804 66 358 0.0 0.0 0.00 0.00 0.00 57 1020.0
20210225001308 66 358 0.0 0.0 0.00 0.00 0.00 55 1020.0
20210225000804 66 358 0.0 0.0 0.00 0.00 0.00 54 1019.9
20210225000305 67 358 0.0 2.0 0.00 0.00 0.00 54 1019.9
20210225000126 68 358 0.0 0.0 0.00 0.00 0.00 52 1019.9
20210224235909 67 358 0.0 0.0 0.00 0.00 0.00 53 1019.9
20210224235804 67 358 0.0 0.0 0.00 0.00 0.00 53 1019.9
20210224235432 68 358 0.0 0.0 0.00 0.00 0.00 52 1019.9
20210224234924 68 358 0.0 0.0 0.00 0.00 0.00 51 1019.8
20210224234259 68 358 0.0 0.0 0.00 0.00 0.00 50 1019.9
20210224233801 68 358 0.0 0.0 0.00 0.00 0.00 49 1019.9
20210224233302 69 358 0.0 0.0 0.00 0.00 0.00 48 1019.8
20210224232929 69 358 0.0 0.0 0.00 0.00 0.00 48 1019.8
20210224232300 69 358 0.0 0.0 0.00 0.00 0.00 47 1019.8
20210224231801 70 358 0.0 0.0 0.00 0.00 0.00 46 1019.7
20210224230758 70 358 0.0 0.0 0.00 0.00 0.00 45 1019.7
20210224230138 71 358 0.0 0.0 0.00 0.00 0.00 42 1019.6
20210224225756 71 358 0.0 0.0 0.00 0.00 0.00 44 1019.6
20210224225257 71 358 0.0 0.0 0.00 0.00 0.00 43 1019.6
20210224224755 71 358 0.0 0.0 0.00 0.00 0.00 42 1019.6
20210224224300 72 358 0.0 0.0 0.00 0.00 0.00 42 1019.6
20210224223755 72 358 0.0 0.0 0.00 0.00 0.00 43 1019.6
20210224222945 73 358 0.0 0.0 0.00 0.00 0.00 46 1019.5
20210224222256 73 358 0.0 0.0 0.00 0.00 0.00 45 1019.5
20210224221756 73 358 0.0 0.0 0.00 0.00 0.00 44 1019.5
20210224221255 73 358 0.0 0.0 0.00 0.00 0.00 44 1019.5
20210224220755 73 358 0.0 0.0 0.00 0.00 0.00 43 1019.5
20210224220307 73 358 0.0 0.0 0.00 0.00 0.00 44 1019.5
20210224215755 74 358 0.0 0.0 0.00 0.00 0.00 44 1019.4
20210224215439 74 358 0.0 0.0 0.00 0.00 0.00 44 1019.4
20210224213751 74 358 0.0 9.0 0.00 0.00 0.00 40 1019.4
20210224213259 75 225 0.0 0.0 0.00 0.00 0.00 38 1019.3
20210224212916 75 225 0.0 0.0 0.00 0.00 0.00 35 1019.3
20210224212251 75 225 0.0 0.0 0.00 0.00 0.00 35 1019.3
20210224211751 75 225 0.0 0.0 0.00 0.00 0.00 35 1019.2
20210224211458 75 225 0.0 0.0 0.00 0.00 0.00 35 1019.3
20210224211256 75 225 0.0 0.0 0.00 0.00 0.00 35 1019.3
20210224210752 75 225 0.0 0.0 0.00 0.00 0.00 33 1019.3
20210224210249 75 225 0.0 0.0 0.00 0.00 0.00 34 1019.2
20210224210020 75 225 0.0 0.0 0.00 0.00 0.00 35 1019.4
20210224205749 75 225 0.0 0.0 0.00 0.00 0.00 34 1019.3
20210224205323 75 225 0.0 0.0 0.00 0.00 0.00 35 1019.4
20210224205138 75 225 0.0 0.0 0.00 0.00 0.00 36 1019.4
20210224204810 75 225 0.0 0.0 0.00 0.00 0.00 35 1019.4
20210224204248 75 225 0.0 0.0 0.00 0.00 0.00 34 1019.5
20210224203748 75 225 0.0 0.0 0.00 0.00 0.00 36 1019.4
20210224203311 75 225 0.0 0.0 0.00 0.00 0.00 42 1019.6
20210224203248 75 225 0.0 0.0 0.00 0.00 0.00 35 1019.5
20210224202916 76 225 0.0 0.0 0.00 0.00 0.00 39 1019.6
20210224202247 75 225 0.0 0.0 0.00 0.00 0.00 42 1019.6
20210224201749 75 225 0.0 0.0 0.00 0.00 0.00 45 1019.6
20210224201248 75 225 0.0 0.0 0.00 0.00 0.00 45 1019.6
20210224201038 75 225 0.0 0.0 0.00 0.00 0.00 53 1019.8
20210224200748 75 225 0.0 0.0 0.00 0.00 0.00 46 1019.7
20210224200247 75 225 0.0 0.0 0.00 0.00 0.00 49 1019.8
20210224195745 75 225 0.0 0.0 0.00 0.00 0.00 53 1019.8
20210224195402 74 225 0.0 0.0 0.00 0.00 0.00 57 1019.8
20210224194842 75 225 0.0 0.0 0.00 0.00 0.00 58 1019.8
20210224194247 75 225 0.0 0.0 0.00 0.00 0.00 60 1019.7
20210224193744 75 225 0.0 0.0 0.00 0.00 0.00 59 1019.7
20210224193244 75 225 0.0 0.0 0.00 0.00 0.00 59 1019.8
20210224192918 75 225 0.0 0.0 0.00 0.00 0.00 59 1019.7